Time;durP1;ratioP1;P1;durP2;ratioP2;P2;SDS_P1;SDS_P2;PMS_P1;PMS_P2;Temp;Humidity;BMP_temperature;BMP_pressure;BME280_temperature;BME280_humidity;BME280_pressure;Samples;Min_cycle;Max_cycle;Signal;HPM_P1;HPM_P2
2021/09/17 00:01:26;;;;;;;7.00;1.00;;;15.10;85.90;;;;;;5075539;28;20175;-90
2021/09/17 00:03:51;;;;;;;5.40;1.23;;;15.10;86.00;;;;;;5075687;28;20179;-90
2021/09/17 00:06:17;;;;;;;3.55;0.90;;;15.10;86.40;;;;;;5076355;28;20225;-90
2021/09/17 00:08:43;;;;;;;8.00;1.52;;;15.10;86.60;;;;;;5076481;28;20187;-89
2021/09/17 00:11:08;;;;;;;6.90;1.13;;;15.10;86.10;;;;;;5075530;28;20179;-90
2021/09/17 00:13:34;;;;;;;9.73;1.48;;;15.10;86.20;;;;;;5076925;28;20202;-90
2021/09/17 00:16:00;;;;;;;7.80;1.08;;;15.10;86.00;;;;;;5076708;28;20203;-90
2021/09/17 00:18:26;;;;;;;10.25;1.17;;;15.10;86.00;;;;;;5077222;28;20168;-90
2021/09/17 00:20:52;;;;;;;9.55;1.20;;;15.10;85.80;;;;;;5075115;28;20183;-89
2021/09/17 00:23:17;;;;;;;5.83;1.40;;;15.00;86.00;;;;;;5074880;28;20195;-89
2021/09/17 00:25:43;;;;;;;3.57;1.17;;;15.00;86.00;;;;;;5075169;28;20186;-88
2021/09/17 00:28:09;;;;;;;4.88;1.50;;;15.00;86.00;;;;;;5075500;28;20257;-87
2021/09/17 00:30:37;;;;;;;4.70;1.15;;;15.10;86.10;;;;;;5073617;28;20219;-88
2021/09/17 00:33:03;;;;;;;6.85;1.40;;;15.00;85.90;;;;;;5074130;28;20210;-88
2021/09/17 00:35:29;;;;;;;4.53;0.88;;;15.10;85.90;;;;;;5075554;28;20618;-88
2021/09/17 00:37:56;;;;;;;4.25;1.10;;;15.00;86.10;;;;;;5074423;28;20175;-88
2021/09/17 00:40:21;;;;;;;6.07;1.67;;;15.10;85.70;;;;;;5075524;28;20253;-88
2021/09/17 00:42:48;;;;;;;5.60;1.30;;;15.00;85.70;;;;;;5074471;28;20225;-88
2021/09/17 00:45:14;;;;;;;5.45;1.13;;;15.00;85.90;;;;;;5075513;28;20657;-88
2021/09/17 00:47:42;;;;;;;4.45;1.40;;;15.00;85.90;;;;;;5074813;28;20651;-88
2021/09/17 00:50:11;;;;;;;10.10;1.10;;;15.00;85.90;;;;;;5076160;28;20656;-88
2021/09/17 00:52:37;;;;;;;3.50;0.98;;;15.00;85.90;;;;;;5074035;28;20249;-88
2021/09/17 00:55:03;;;;;;;4.80;1.30;;;15.00;85.70;;;;;;5074448;28;20643;-88
2021/09/17 00:57:29;;;;;;;5.70;0.80;;;15.00;85.80;;;;;;5074330;28;20521;-89
2021/09/17 00:59:55;;;;;;;7.72;1.27;;;15.00;85.60;;;;;;5073880;28;20182;-89
2021/09/17 01:02:20;;;;;;;2.80;0.75;;;15.00;85.30;;;;;;5074558;28;20663;-88
2021/09/17 01:04:46;;;;;;;3.03;0.88;;;15.00;85.00;;;;;;5073724;28;20203;-88
2021/09/17 01:07:13;;;;;;;4.32;1.10;;;15.00;85.10;;;;;;5073801;28;20233;-88
2021/09/17 01:09:50;;;;;;;5.25;1.10;;;15.00;85.40;;;;;;5075134;28;20182;-88
2021/09/17 01:12:22;;;;;;;4.20;0.82;;;15.00;85.60;;;;;;5074968;28;20206;-88
2021/09/17 01:15:01;;;;;;;3.45;1.10;;;14.90;85.30;;;;;;5072910;28;20708;-89
2021/09/17 01:17:36;;;;;;;3.38;0.95;;;14.90;85.30;;;;;;5074196;28;20175;-89
2021/09/17 01:20:04;;;;;;;5.47;1.02;;;15.00;85.30;;;;;;5075261;28;20156;-89
2021/09/17 01:22:30;;;;;;;7.47;1.10;;;14.90;85.50;;;;;;5073349;28;20187;-88
2021/09/17 01:24:55;;;;;;;4.03;1.40;;;14.90;85.60;;;;;;5074017;28;20237;-88
2021/09/17 01:27:22;;;;;;;3.92;1.25;;;14.90;85.70;;;;;;5073600;28;20647;-89
2021/09/17 01:29:48;;;;;;;5.35;1.13;;;14.90;85.80;;;;;;5073450;28;20178;-88
2021/09/17 01:32:15;;;;;;;4.65;1.00;;;14.90;85.90;;;;;;5074883;28;20179;-88
2021/09/17 01:34:42;;;;;;;10.82;1.20;;;15.00;86.00;;;;;;5073476;28;20191;-89
2021/09/17 01:37:08;;;;;;;4.70;0.82;;;14.90;86.10;;;;;;5073652;28;20198;-89
2021/09/17 01:39:33;;;;;;;7.22;1.08;;;14.90;85.80;;;;;;5073012;28;20175;-88
2021/09/17 01:41:59;;;;;;;5.72;1.20;;;14.90;85.00;;;;;;5073042;28;20689;-89
2021/09/17 01:44:25;;;;;;;5.55;0.90;;;14.90;85.10;;;;;;5073926;28;20694;-88
2021/09/17 01:46:51;;;;;;;5.88;1.25;;;14.90;84.80;;;;;;5074662;28;20228;-88
2021/09/17 01:49:40;;;;;;;4.23;0.93;;;14.90;84.90;;;;;;5061319;28;20185;-89
2021/09/17 01:52:06;;;;;;;4.80;0.80;;;14.90;84.80;;;;;;5078332;28;20191;-89
2021/09/17 01:54:31;;;;;;;8.35;1.85;;;14.90;84.80;;;;;;5077370;28;20195;-88
2021/09/17 01:56:57;;;;;;;3.37;0.83;;;14.90;84.20;;;;;;5078265;28;20242;-88
2021/09/17 01:59:23;;;;;;;4.03;1.02;;;14.90;84.20;;;;;;5078194;28;20171;-88
2021/09/17 02:01:48;;;;;;;6.18;0.75;;;14.90;84.20;;;;;;5077205;28;20191;-88
2021/09/17 02:04:14;;;;;;;3.63;0.77;;;14.90;84.30;;;;;;5076907;28;20644;-89
2021/09/17 02:06:40;;;;;;;7.45;1.42;;;14.90;84.50;;;;;;5076333;28;20183;-89
2021/09/17 02:09:06;;;;;;;7.25;1.20;;;14.90;84.50;;;;;;5076671;28;20175;-89
2021/09/17 02:11:32;;;;;;;7.57;1.00;;;14.80;84.40;;;;;;5076881;28;20199;-89
2021/09/17 02:14:03;;;;;;;3.67;1.17;;;14.80;84.10;;;;;;5076634;28;20293;-88
2021/09/17 02:16:29;;;;;;;3.17;1.00;;;14.90;83.90;;;;;;5076455;28;20202;-89
2021/09/17 02:18:55;;;;;;;3.25;0.77;;;14.80;83.90;;;;;;5077784;28;20171;-89
2021/09/17 02:21:22;;;;;;;5.45;1.10;;;14.80;83.90;;;;;;5076344;28;20195;-89
2021/09/17 02:23:55;;;;;;;7.67;1.30;;;14.80;83.90;;;;;;5076251;28;20171;-88
2021/09/17 02:26:22;;;;;;;3.67;0.95;;;14.80;84.00;;;;;;5076702;28;20186;-88
2021/09/17 02:28:48;;;;;;;4.30;0.80;;;14.70;83.70;;;;;;5076178;28;20179;-88
2021/09/17 02:31:19;;;;;;;5.65;1.65;;;14.70;83.80;;;;;;5076261;28;20171;-88
2021/09/17 02:33:45;;;;;;;3.47;0.90;;;14.80;83.50;;;;;;5076141;28;20175;-88
2021/09/17 02:36:11;;;;;;;3.72;0.88;;;14.80;83.50;;;;;;5076660;28;20264;-89
2021/09/17 02:38:36;;;;;;;3.70;0.95;;;14.80;83.50;;;;;;5076367;28;20171;-89
2021/09/17 02:41:02;;;;;;;5.43;0.97;;;14.70;83.20;;;;;;5076836;28;20175;-88
2021/09/17 02:43:28;;;;;;;4.60;0.68;;;14.70;83.50;;;;;;5076113;28;20244;-89
2021/09/17 02:45:54;;;;;;;3.60;0.75;;;14.70;83.50;;;;;;5077446;28;20192;-88
2021/09/17 02:48:20;;;;;;;2.70;0.85;;;14.70;83.70;;;;;;5077723;28;20535;-88
2021/09/17 02:50:45;;;;;;;4.63;0.75;;;14.70;83.80;;;;;;5076006;28;20176;-88
2021/09/17 02:53:11;;;;;;;1.70;0.70;;;14.70;84.10;;;;;;5076120;28;20203;-88
2021/09/17 02:55:37;;;;;;;3.13;0.68;;;14.60;83.60;;;;;;5075714;28;20199;-88
2021/09/17 02:58:03;;;;;;;1.93;0.73;;;14.60;83.30;;;;;;5075241;28;20673;-89
2021/09/17 03:00:31;;;;;;;4.57;1.00;;;14.60;82.70;;;;;;5075637;28;20643;-88
2021/09/17 03:02:56;;;;;;;3.55;0.70;;;14.60;82.40;;;;;;5075801;28;20191;-88
2021/09/17 03:05:22;;;;;;;1.50;0.50;;;14.50;82.60;;;;;;5075751;28;20179;-89
2021/09/17 03:07:48;;;;;;;3.87;0.50;;;14.50;82.50;;;;;;5075467;28;20191;-88
2021/09/17 03:10:14;;;;;;;3.20;0.65;;;14.50;82.40;;;;;;5075495;28;20225;-88
2021/09/17 03:12:40;;;;;;;2.72;1.55;;;14.60;82.10;;;;;;5075416;28;20248;-89
2021/09/17 03:15:06;;;;;;;3.45;0.82;;;14.50;82.30;;;;;;5075601;28;20597;-89
2021/09/17 03:17:32;;;;;;;1.95;0.70;;;14.50;82.60;;;;;;5076607;28;20176;-88
2021/09/17 03:19:57;;;;;;;0.50;0.50;;;14.50;82.60;;;;;;5075851;28;20185;-88
2021/09/17 03:22:23;;;;;;;3.03;0.60;;;14.40;82.70;;;;;;5075473;28;20203;-89
2021/09/17 03:24:49;;;;;;;0.93;0.57;;;14.40;83.00;;;;;;5075353;28;20225;-88
2021/09/17 03:27:23;;;;;;;2.83;1.03;;;14.40;83.20;;;;;;5075363;28;20190;-89
2021/09/17 03:29:49;;;;;;;1.17;0.90;;;14.40;83.50;;;;;;5075380;28;20175;-88
2021/09/17 03:32:14;;;;;;;0.90;0.53;;;14.30;83.50;;;;;;5075702;28;20564;-89
2021/09/17 03:34:40;;;;;;;2.87;0.57;;;14.40;83.60;;;;;;5075596;28;20221;-89
2021/09/17 03:37:05;;;;;;;1.23;0.60;;;14.30;84.00;;;;;;5075503;28;20266;-88
2021/09/17 03:39:31;;;;;;;4.23;0.63;;;14.30;84.00;;;;;;5075399;28;20167;-89
2021/09/17 03:41:57;;;;;;;1.67;0.67;;;14.30;84.30;;;;;;5077017;28;20555;-89
2021/09/17 03:44:23;;;;;;;2.53;0.60;;;14.20;84.40;;;;;;5076217;28;20202;-88
2021/09/17 03:46:58;;;;;;;2.67;0.60;;;14.30;84.40;;;;;;5074913;28;20175;-89
2021/09/17 03:49:24;;;;;;;1.67;0.70;;;14.20;84.40;;;;;;5075444;28;20174;-89
2021/09/17 03:51:50;;;;;;;3.03;0.57;;;14.20;84.50;;;;;;5076538;28;20197;-88
2021/09/17 03:54:15;;;;;;;1.02;0.60;;;14.20;84.60;;;;;;5075352;28;20273;-88
2021/09/17 03:56:41;;;;;;;3.50;0.77;;;14.30;84.70;;;;;;5074602;28;20195;-88
2021/09/17 03:59:43;;;;;;;2.17;0.53;;;14.30;84.70;;;;;;5074038;28;20168;-88
2021/09/17 04:02:09;;;;;;;1.43;0.50;;;14.30;84.80;;;;;;5036552;28;20206;-88
2021/09/17 04:04:41;;;;;;;3.07;0.80;;;14.20;84.60;;;;;;5074148;28;20175;-89
2021/09/17 04:07:08;;;;;;;2.47;0.67;;;14.20;84.10;;;;;;5074047;28;20256;-88
2021/09/17 04:09:34;;;;;;;1.03;0.43;;;14.30;83.30;;;;;;5073358;28;20179;-89
2021/09/17 04:12:00;;;;;;;0.77;0.50;;;14.30;83.30;;;;;;5074156;28;20222;-89
2021/09/17 04:14:46;;;;;;;1.00;0.50;;;14.20;83.20;;;;;;5073250;28;20182;-89
2021/09/17 04:17:11;;;;;;;1.50;0.53;;;14.20;82.60;;;;;;5074199;28;20199;-88
2021/09/17 04:19:37;;;;;;;2.40;0.43;;;14.20;82.40;;;;;;5073806;28;20270;-88
2021/09/17 04:22:04;;;;;;;4.10;0.50;;;14.20;82.20;;;;;;5073984;28;20231;-88
2021/09/17 04:24:30;;;;;;;5.37;0.60;;;14.00;82.40;;;;;;5074028;28;20643;-88
2021/09/17 04:26:56;;;;;;;2.00;0.57;;;14.00;82.40;;;;;;5074979;28;20197;-89
2021/09/17 04:29:21;;;;;;;0.63;0.40;;;14.00;82.30;;;;;;5074284;28;20179;-89
2021/09/17 04:31:47;;;;;;;0.40;0.40;;;14.00;81.90;;;;;;5073687;28;20195;-88
2021/09/17 04:34:13;;;;;;;2.80;0.53;;;14.00;82.50;;;;;;5073605;28;20665;-89
2021/09/17 04:36:38;;;;;;;5.20;0.90;;;13.90;82.30;;;;;;5073887;28;20203;-88
2021/09/17 04:39:04;;;;;;;5.17;1.57;;;14.00;82.00;;;;;;5073571;28;20174;-88
2021/09/17 04:41:30;;;;;;;1.67;0.60;;;14.00;81.80;;;;;;5072950;28;20187;-88
2021/09/17 04:44:22;;;;;;;1.90;0.50;;;13.90;82.50;;;;;;5074084;28;20537;-89
2021/09/17 04:46:48;;;;;;;0.93;0.50;;;13.90;82.80;;;;;;5069065;28;20268;-89
2021/09/17 04:49:25;;;;;;;1.67;0.60;;;13.80;83.00;;;;;;5072817;28;20206;-88
2021/09/17 04:51:57;;;;;;;0.50;0.50;;;13.80;83.40;;;;;;5073262;28;20341;-88
2021/09/17 04:54:25;;;;;;;0.93;0.43;;;13.80;83.20;;;;;;5072783;28;20198;-88
2021/09/17 04:56:51;;;;;;;0.53;0.50;;;13.70;83.40;;;;;;5073118;28;20206;-88
2021/09/17 04:59:16;;;;;;;1.17;0.60;;;13.70;83.30;;;;;;5074175;28;20534;-88
2021/09/17 05:01:43;;;;;;;2.10;0.57;;;13.70;83.00;;;;;;5072852;28;20219;-89
2021/09/17 05:04:09;;;;;;;1.43;0.60;;;13.70;82.90;;;;;;5073753;28;20176;-88
2021/09/17 05:06:34;;;;;;;1.50;0.47;;;13.70;82.40;;;;;;5072722;28;20175;-88
2021/09/17 05:09:00;;;;;;;0.93;0.40;;;13.70;82.40;;;;;;5073737;28;20209;-88
2021/09/17 05:11:26;;;;;;;1.03;0.50;;;13.60;82.20;;;;;;5073772;28;20216;-89
2021/09/17 05:13:52;;;;;;;3.50;0.50;;;13.70;82.20;;;;;;5073794;28;20175;-89
2021/09/17 05:16:18;;;;;;;1.43;0.63;;;13.70;82.10;;;;;;5072569;28;20199;-88
2021/09/17 05:18:44;;;;;;;3.80;0.40;;;13.70;81.90;;;;;;5072673;28;20187;-88
2021/09/17 05:21:10;;;;;;;2.93;0.57;;;13.70;81.90;;;;;;5072281;28;20175;-89
2021/09/17 05:23:36;;;;;;;2.20;0.40;;;13.70;81.70;;;;;;5072729;28;20214;-88
2021/09/17 05:26:03;;;;;;;1.07;0.40;;;13.60;82.20;;;;;;5073564;28;20264;-88
2021/09/17 05:28:30;;;;;;;0.50;0.37;;;13.60;82.10;;;;;;5073872;28;20175;-89
2021/09/17 05:30:56;;;;;;;0.80;0.50;;;13.50;82.20;;;;;;5072460;28;20179;-89
2021/09/17 05:33:21;;;;;;;1.17;0.40;;;13.50;82.20;;;;;;5072432;28;20199;-89
2021/09/17 05:35:47;;;;;;;0.43;0.43;;;13.50;82.10;;;;;;5071874;28;20226;-89
2021/09/17 05:38:19;;;;;;;2.20;0.50;;;13.50;82.10;;;;;;5072323;28;20179;-88
2021/09/17 05:40:44;;;;;;;0.37;0.37;;;13.50;82.20;;;;;;5072205;28;20233;-89
2021/09/17 05:43:10;;;;;;;3.67;0.60;;;13.50;82.30;;;;;;5072267;28;20278;-89
2021/09/17 05:45:36;;;;;;;1.80;0.60;;;13.50;82.50;;;;;;5072481;28;20179;-88
2021/09/17 05:48:02;;;;;;;0.47;0.47;;;13.50;82.50;;;;;;5073384;28;20179;-89
2021/09/17 05:50:27;;;;;;;1.90;0.60;;;13.60;82.20;;;;;;5072201;28;20206;-88
2021/09/17 05:52:53;;;;;;;0.60;0.40;;;13.50;82.60;;;;;;5072104;28;20248;-88
2021/09/17 05:55:20;;;;;;;2.00;0.60;;;13.60;82.20;;;;;;5071814;28;20233;-89
2021/09/17 05:57:46;;;;;;;0.40;0.40;;;13.60;82.40;;;;;;5073263;28;20167;-89
2021/09/17 06:00:12;;;;;;;2.43;0.43;;;13.50;82.50;;;;;;5071955;28;20171;-88
2021/09/17 06:02:38;;;;;;;0.40;0.40;;;13.60;82.30;;;;;;5071880;28;20191;-88
2021/09/17 06:05:04;;;;;;;1.03;0.50;;;13.60;82.10;;;;;;5071744;28;20258;-88
2021/09/17 06:07:30;;;;;;;0.57;0.43;;;13.60;82.30;;;;;;5071927;28;20321;-88
2021/09/17 06:09:56;;;;;;;1.63;0.47;;;13.70;81.90;;;;;;5071863;28;20662;-88
2021/09/17 06:12:21;;;;;;;1.73;0.60;;;13.70;81.60;;;;;;5072516;28;20218;-89
2021/09/17 06:14:47;;;;;;;5.17;0.53;;;13.70;81.30;;;;;;5073376;28;20178;-88
2021/09/17 06:17:13;;;;;;;1.47;0.50;;;13.70;81.90;;;;;;5072951;28;20202;-88
2021/09/17 06:19:38;;;;;;;2.27;0.50;;;13.60;81.50;;;;;;5071759;28;20182;-89
2021/09/17 06:22:04;;;;;;;0.80;0.40;;;13.60;80.70;;;;;;5071639;28;20234;-88
2021/09/17 06:24:30;;;;;;;0.67;0.50;;;13.60;81.20;;;;;;5071729;28;20171;-88
2021/09/17 06:26:55;;;;;;;0.67;0.40;;;13.60;81.50;;;;;;5071814;28;20272;-89
2021/09/17 06:29:21;;;;;;;0.40;0.40;;;13.70;81.30;;;;;;5072353;28;20207;-88
2021/09/17 06:31:46;;;;;;;1.37;0.57;;;13.60;81.30;;;;;;5071629;28;20720;-89
2021/09/17 06:34:12;;;;;;;0.67;0.50;;;13.60;81.40;;;;;;5076302;28;20179;-88
2021/09/17 06:36:38;;;;;;;2.17;0.50;;;13.70;81.30;;;;;;5076853;28;20233;-88
2021/09/17 06:39:04;;;;;;;1.03;0.50;;;13.70;81.40;;;;;;5075376;28;20566;-89
2021/09/17 06:41:29;;;;;;;0.70;0.43;;;13.70;81.70;;;;;;5075614;28;20206;-88
2021/09/17 06:43:56;;;;;;;0.87;0.60;;;13.60;81.40;;;;;;5075480;28;20171;-88
2021/09/17 06:46:21;;;;;;;0.60;0.60;;;13.50;81.40;;;;;;5075159;28;20183;-88
2021/09/17 06:48:47;;;;;;;1.07;0.73;;;13.50;81.70;;;;;;5075124;28;20202;-89
2021/09/17 06:51:13;;;;;;;1.37;0.63;;;13.60;82.00;;;;;;5076579;28;20253;-88
2021/09/17 06:53:39;;;;;;;0.67;0.67;;;13.70;82.30;;;;;;5075109;28;20175;-88
2021/09/17 06:56:05;;;;;;;0.60;0.60;;;13.80;81.70;;;;;;5075261;28;20213;-86
2021/09/17 06:58:33;;;;;;;2.03;0.70;;;13.70;81.70;;;;;;5075470;28;20179;-86
2021/09/17 07:01:00;;;;;;;1.00;0.60;;;13.80;81.20;;;;;;5075080;28;20183;-86
2021/09/17 07:03:26;;;;;;;1.87;0.60;;;13.80;81.10;;;;;;5074887;28;20203;-87
2021/09/17 07:05:52;;;;;;;0.63;0.50;;;13.80;81.20;;;;;;5074759;28;20184;-86
2021/09/17 07:08:19;;;;;;;3.27;0.60;;;13.80;81.10;;;;;;5074687;28;20258;-87
2021/09/17 07:10:46;;;;;;;0.40;0.40;;;13.80;81.10;;;;;;5075837;28;20229;-86
2021/09/17 07:13:11;;;;;;;4.27;0.50;;;13.90;81.40;;;;;;5074478;28;20294;-86
2021/09/17 07:15:38;;;;;;;1.67;0.43;;;13.90;81.60;;;;;;5074456;28;20289;-86
2021/09/17 07:18:04;;;;;;;0.73;0.60;;;13.90;81.10;;;;;;5074435;28;20191;-87
2021/09/17 07:20:30;;;;;;;2.23;0.40;;;13.90;81.30;;;;;;5074376;28;20217;-86
2021/09/17 07:22:56;;;;;;;2.17;0.70;;;14.00;81.00;;;;;;5075612;28;20191;-86
2021/09/17 07:25:22;;;;;;;1.20;0.60;;;14.00;80.80;;;;;;5074346;28;20337;-87
2021/09/17 07:27:48;;;;;;;0.70;0.60;;;14.10;79.60;;;;;;5074452;28;20171;-86
2021/09/17 07:30:15;;;;;;;0.40;0.40;;;14.00;80.40;;;;;;5074307;28;20190;-86
2021/09/17 07:32:40;;;;;;;0.50;0.37;;;14.10;80.70;;;;;;5075475;28;20270;-87
2021/09/17 07:35:07;;;;;;;0.50;0.50;;;14.20;80.30;;;;;;5075592;28;20713;-87
2021/09/17 07:37:33;;;;;;;2.70;0.50;;;14.20;80.10;;;;;;5075449;28;20203;-87
2021/09/17 07:39:58;;;;;;;4.33;0.50;;;14.30;79.80;;;;;;5075513;28;20217;-87
2021/09/17 07:42:24;;;;;;;1.77;0.50;;;14.30;80.40;;;;;;5074169;28;20222;-87
2021/09/17 07:44:50;;;;;;;1.27;0.60;;;14.30;79.70;;;;;;5072973;28;20229;-87
2021/09/17 07:47:15;;;;;;;1.03;0.53;;;14.40;80.20;;;;;;5075736;28;20175;-86
2021/09/17 07:49:41;;;;;;;0.83;0.60;;;14.40;79.60;;;;;;5074027;28;20266;-86
2021/09/17 07:52:07;;;;;;;1.53;0.60;;;14.40;80.10;;;;;;5074004;28;20202;-87
2021/09/17 07:54:33;;;;;;;0.70;0.57;;;14.40;80.60;;;;;;5075102;28;20213;-87
2021/09/17 07:56:59;;;;;;;3.00;0.50;;;14.50;80.30;;;;;;5073789;28;20671;-87
2021/09/17 07:59:25;;;;;;;1.70;0.40;;;14.50;79.30;;;;;;5073830;28;20179;-87
2021/09/17 08:01:50;;;;;;;0.90;0.50;;;14.50;79.80;;;;;;5073747;28;20663;-87
2021/09/17 08:04:16;;;;;;;0.40;0.40;;;14.50;79.80;;;;;;5073835;28;20530;-86
2021/09/17 08:06:42;;;;;;;0.97;0.50;;;14.50;79.50;;;;;;5074919;28;20198;-86
2021/09/17 08:09:08;;;;;;;1.50;0.40;;;14.50;79.10;;;;;;5073677;28;20175;-86
2021/09/17 08:11:34;;;;;;;1.03;0.33;;;14.70;79.90;;;;;;5074741;28;20659;-86
2021/09/17 08:14:00;;;;;;;2.07;0.40;;;14.60;78.80;;;;;;5074656;28;20206;-86
2021/09/17 08:16:26;;;;;;;0.65;0.47;;;14.70;78.60;;;;;;5073590;28;20226;-86
2021/09/17 08:18:52;;;;;;;0.50;0.50;;;14.70;79.10;;;;;;5073627;28;20654;-87
2021/09/17 08:21:17;;;;;;;1.13;0.60;;;14.80;79.00;;;;;;5073517;28;20643;-87
2021/09/17 08:23:44;;;;;;;1.00;0.50;;;14.90;79.00;;;;;;5073668;28;20639;-87
2021/09/17 08:26:09;;;;;;;0.93;0.57;;;15.00;78.40;;;;;;5073362;28;20183;-87
2021/09/17 08:28:35;;;;;;;1.13;0.45;;;15.00;78.20;;;;;;5073653;28;20597;-86
2021/09/17 08:31:03;;;;;;;2.90;0.85;;;15.00;78.60;;;;;;5074493;28;20205;-86
2021/09/17 08:33:29;;;;;;;0.80;0.80;;;14.90;78.20;;;;;;5073119;28;20204;-86
2021/09/17 08:35:55;;;;;;;1.70;0.70;;;14.80;79.10;;;;;;5074109;28;20374;-87
2021/09/17 08:38:20;;;;;;;1.67;0.80;;;15.00;78.90;;;;;;5074468;28;20260;-86
2021/09/17 08:40:46;;;;;;;2.47;0.80;;;15.00;77.60;;;;;;5072998;28;20623;-85
2021/09/17 08:43:12;;;;;;;1.35;0.57;;;15.10;78.70;;;;;;5072856;28;20199;-86
2021/09/17 08:45:37;;;;;;;2.33;0.80;;;15.20;77.80;;;;;;5072730;28;20181;-86
2021/09/17 08:48:03;;;;;;;0.57;0.55;;;15.20;77.30;;;;;;5073966;28;20257;-86
2021/09/17 08:50:30;;;;;;;1.10;0.60;;;15.20;77.40;;;;;;5072886;28;20179;-87
2021/09/17 08:52:56;;;;;;;0.40;0.40;;;15.30;77.80;;;;;;5072688;28;20198;-86
2021/09/17 08:55:22;;;;;;;0.50;0.50;;;15.30;76.70;;;;;;5072284;28;20650;-86
2021/09/17 08:57:48;;;;;;;0.77;0.40;;;15.30;76.30;;;;;;5072754;28;20183;-86
2021/09/17 09:00:26;;;;;;;0.52;0.52;;;15.20;76.80;;;;;;5072629;28;20175;-86
2021/09/17 09:02:54;;;;;;;1.85;0.55;;;15.30;77.00;;;;;;5072592;28;20707;-86
2021/09/17 09:05:30;;;;;;;1.27;0.57;;;15.30;76.90;;;;;;5073724;28;20544;-86
2021/09/17 09:07:56;;;;;;;1.40;0.47;;;15.50;78.80;;;;;;5072442;28;20167;-86
2021/09/17 09:10:22;;;;;;;0.77;0.50;;;15.60;78.30;;;;;;5072530;28;20176;-86
2021/09/17 09:12:50;;;;;;;0.52;0.52;;;15.60;77.00;;;;;;5072414;28;20206;-86
2021/09/17 09:15:28;;;;;;;1.52;0.47;;;15.70;77.00;;;;;;5072366;28;20225;-86
2021/09/17 09:17:56;;;;;;;0.82;0.82;;;15.90;77.40;;;;;;5072412;28;20248;-86
2021/09/17 09:20:28;;;;;;;0.60;0.60;;;16.00;76.80;;;;;;5073789;28;20627;-86
2021/09/17 09:23:21;;;;;;;1.83;0.85;;;16.00;76.30;;;;;;5072277;28;20200;-86
2021/09/17 09:26:08;;;;;;;3.78;0.52;;;16.20;75.90;;;;;;5072310;28;20270;-87
2021/09/17 09:28:36;;;;;;;2.03;0.40;;;16.30;76.60;;;;;;5073379;28;20220;-87
2021/09/17 09:31:13;;;;;;;0.65;0.50;;;16.10;76.00;;;;;;5073423;28;20178;-87
2021/09/17 09:33:41;;;;;;;1.05;0.50;;;16.20;76.40;;;;;;5072036;28;20655;-86
2021/09/17 09:36:10;;;;;;;0.63;0.50;;;16.20;75.30;;;;;;5072004;28;20298;-87
2021/09/17 09:38:39;;;;;;;1.35;0.70;;;16.20;75.70;;;;;;5072037;28;20167;-86
2021/09/17 09:41:07;;;;;;;1.45;0.50;;;16.40;76.10;;;;;;5072327;28;20175;-86
2021/09/17 09:43:36;;;;;;;1.55;0.75;;;16.50;75.90;;;;;;5073043;28;20196;-86
2021/09/17 09:46:27;;;;;;;0.85;0.47;;;16.30;74.80;;;;;;5073283;28;20171;-86
2021/09/17 09:48:59;;;;;;;2.50;0.60;;;16.30;75.00;;;;;;5073556;28;20191;-86
2021/09/17 09:51:26;;;;;;;1.20;0.50;;;16.10;75.20;;;;;;5073327;28;20564;-86
2021/09/17 09:53:52;;;;;;;0.80;0.50;;;16.10;74.30;;;;;;5073174;28;20226;-87
2021/09/17 09:56:21;;;;;;;1.13;0.60;;;16.10;75.10;;;;;;5071888;28;20203;-87
2021/09/17 09:58:48;;;;;;;2.55;0.50;;;16.40;75.00;;;;;;5073285;28;20210;-88
2021/09/17 10:01:18;;;;;;;0.68;0.60;;;16.50;73.20;;;;;;5071738;28;20190;-88
2021/09/17 10:03:52;;;;;;;2.67;0.40;;;16.60;73.00;;;;;;5073243;28;20152;-89
2021/09/17 10:06:18;;;;;;;0.40;0.40;;;16.70;72.20;;;;;;5071845;28;20221;-88
2021/09/17 10:08:46;;;;;;;2.72;0.52;;;16.70;72.10;;;;;;5075345;28;20172;-88
2021/09/17 10:11:11;;;;;;;0.40;0.40;;;16.70;71.90;;;;;;5075692;28;20179;-88
2021/09/17 10:13:37;;;;;;;1.48;0.65;;;16.70;70.80;;;;;;5075768;28;20202;-88
2021/09/17 10:16:04;;;;;;;1.00;0.60;;;16.30;72.40;;;;;;5075613;28;20207;-89
2021/09/17 10:18:30;;;;;;;0.75;0.50;;;16.30;73.30;;;;;;5075695;28;20515;-88
2021/09/17 10:20:56;;;;;;;1.10;0.68;;;16.20;75.00;;;;;;5075581;28;20717;-88
2021/09/17 10:23:33;;;;;;;0.90;0.45;;;16.20;73.90;;;;;;5076293;28;20199;-88
2021/09/17 10:26:04;;;;;;;0.30;0.30;;;16.10;74.50;;;;;;5076700;28;20175;-88
2021/09/17 10:28:31;;;;;;;0.45;0.45;;;16.30;74.30;;;;;;5075354;28;20175;-88
2021/09/17 10:31:23;;;;;;;0.47;0.47;;;16.50;73.50;;;;;;5075422;28;20258;-89
2021/09/17 10:33:49;;;;;;;1.17;0.43;;;16.60;73.40;;;;;;5073127;28;20187;-88
2021/09/17 10:36:34;;;;;;;0.47;0.40;;;16.60;73.10;;;;;;5075099;28;20221;-88
2021/09/17 10:39:13;;;;;;;0.38;0.38;;;16.40;73.70;;;;;;5075168;28;20167;-88
2021/09/17 10:42:05;;;;;;;1.00;0.40;;;17.00;71.60;;;;;;5076418;28;20214;-88
2021/09/17 10:44:30;;;;;;;2.22;0.63;;;16.70;71.90;;;;;;5075184;28;20172;-88
2021/09/17 10:46:56;;;;;;;1.63;0.77;;;16.60;72.40;;;;;;5075024;28;20257;-88
2021/09/17 10:49:21;;;;;;;1.27;0.65;;;16.50;71.80;;;;;;5075035;28;20179;-88
2021/09/17 10:51:47;;;;;;;2.45;0.55;;;16.20;72.70;;;;;;5074989;28;20191;-88
2021/09/17 10:54:19;;;;;;;0.85;0.52;;;16.10;73.50;;;;;;5074953;28;20679;-88
2021/09/17 10:56:47;;;;;;;1.05;0.50;;;16.00;73.30;;;;;;5074904;28;20199;-88
2021/09/17 10:59:24;;;;;;;1.27;0.65;;;15.80;74.40;;;;;;5075125;28;20579;-88
2021/09/17 11:02:03;;;;;;;3.08;0.60;;;16.00;73.70;;;;;;5074775;28;20194;-88
2021/09/17 11:04:31;;;;;;;0.50;0.45;;;16.00;73.70;;;;;;5074876;28;20651;-88
2021/09/17 11:07:17;;;;;;;0.75;0.70;;;16.00;73.70;;;;;;5074677;28;20187;-88
2021/09/17 11:09:48;;;;;;;6.13;0.70;;;16.10;73.40;;;;;;5072262;28;20187;-89
2021/09/17 11:12:17;;;;;;;1.55;0.68;;;16.10;73.60;;;;;;5074597;28;20202;-89
2021/09/17 11:14:42;;;;;;;2.25;0.80;;;16.10;73.00;;;;;;5076042;28;20175;-88
2021/09/17 11:17:08;;;;;;;3.85;0.65;;;16.10;73.40;;;;;;5074502;28;20579;-88
2021/09/17 11:19:34;;;;;;;0.85;0.50;;;16.10;74.20;;;;;;5074367;28;20168;-88
2021/09/17 11:22:01;;;;;;;0.88;0.40;;;16.20;73.90;;;;;;5074493;28;20187;-88
2021/09/17 11:24:28;;;;;;;1.92;0.50;;;16.20;73.50;;;;;;5075733;28;20160;-88
2021/09/17 11:26:56;;;;;;;0.63;0.40;;;16.30;71.40;;;;;;5074372;28;20187;-88
2021/09/17 11:29:24;;;;;;;1.20;0.50;;;16.50;72.80;;;;;;5074384;28;20179;-88
2021/09/17 11:31:57;;;;;;;0.73;0.50;;;16.90;71.10;;;;;;5074378;28;20195;-88
2021/09/17 11:34:28;;;;;;;1.23;0.52;;;16.70;71.30;;;;;;5074228;28;20215;-88
2021/09/17 11:36:58;;;;;;;0.40;0.40;;;16.60;70.00;;;;;;5075748;28;20196;-89
2021/09/17 11:39:38;;;;;;;2.38;0.77;;;16.50;69.80;;;;;;5074242;28;20183;-88
2021/09/17 11:42:05;;;;;;;3.50;0.70;;;16.40;70.10;;;;;;5075340;28;20191;-88
2021/09/17 11:44:49;;;;;;;1.30;0.68;;;16.40;70.50;;;;;;5074141;28;20175;-88
2021/09/17 11:47:38;;;;;;;0.73;0.60;;;16.30;71.10;;;;;;5074005;28;20643;-88
2021/09/17 11:50:09;;;;;;;1.50;0.85;;;16.40;70.70;;;;;;5075305;28;20178;-88
2021/09/17 11:52:43;;;;;;;0.82;0.60;;;16.40;69.20;;;;;;5073899;28;20237;-89
2021/09/17 11:55:15;;;;;;;1.02;0.57;;;16.40;69.70;;;;;;5073887;28;20194;-88
2021/09/17 11:57:46;;;;;;;0.70;0.57;;;16.30;70.20;;;;;;5075235;28;20241;-88
2021/09/17 12:00:17;;;;;;;0.82;0.55;;;16.40;69.10;;;;;;5074093;28;20262;-88
2021/09/17 12:02:44;;;;;;;0.50;0.50;;;16.30;68.40;;;;;;5075367;28;20689;-88
2021/09/17 12:05:22;;;;;;;0.43;0.40;;;16.30;69.10;;;;;;5073935;28;20175;-88
2021/09/17 12:07:51;;;;;;;3.97;0.75;;;16.20;68.30;;;;;;5073923;28;20167;-89
2021/09/17 12:10:19;;;;;;;1.95;0.50;;;16.10;69.70;;;;;;5075315;28;20172;-88
2021/09/17 12:12:48;;;;;;;0.40;0.40;;;16.10;69.30;;;;;;5073621;28;20282;-88
2021/09/17 12:15:25;;;;;;;1.00;0.60;;;16.20;68.60;;;;;;5074870;28;20171;-88
2021/09/17 12:17:52;;;;;;;0.85;0.60;;;16.10;69.00;;;;;;5074001;28;20270;-88
2021/09/17 12:20:17;;;;;;;0.43;0.43;;;16.00;70.90;;;;;;5074855;28;20172;-88
2021/09/17 12:22:48;;;;;;;4.03;0.50;;;16.00;70.30;;;;;;5074633;28;20195;-88
2021/09/17 12:25:18;;;;;;;2.25;0.60;;;16.00;70.00;;;;;;5073435;28;20205;-88
2021/09/17 12:27:54;;;;;;;0.60;0.50;;;16.10;70.30;;;;;;5075030;28;20172;-88
2021/09/17 12:30:21;;;;;;;1.25;0.73;;;16.10;70.50;;;;;;5072800;28;20175;-88
2021/09/17 12:33:07;;;;;;;1.42;0.50;;;16.30;70.80;;;;;;5074460;28;20678;-88
2021/09/17 12:35:33;;;;;;;0.50;0.50;;;16.40;71.00;;;;;;5073032;28;20647;-88
2021/09/17 12:37:59;;;;;;;1.75;0.40;;;16.40;70.80;;;;;;5073143;28;20178;-88
2021/09/17 12:40:29;;;;;;;0.60;0.60;;;16.20;70.10;;;;;;5072918;28;20627;-88
2021/09/17 12:43:04;;;;;;;1.40;0.75;;;16.40;70.30;;;;;;5072922;28;20612;-88
2021/09/17 12:45:32;;;;;;;5.18;0.60;;;16.70;69.40;;;;;;5072905;28;20178;-88
2021/09/17 12:48:03;;;;;;;1.30;0.63;;;17.00;68.90;;;;;;5072880;28;20585;-88
2021/09/17 12:50:38;;;;;;;2.03;0.65;;;17.00;69.00;;;;;;5072759;28;20208;-88